sensor_id;sensor_type;location;lat;lon;timestamp;P1;durP1;ratioP1;P2;durP2;ratioP2
76856;SDS011;69705;44.686;37.628;2023-05-14T00:00:20;8.73;;;4.20;;
76856;SDS011;69705;44.686;37.628;2023-05-14T00:02:47;12.55;;;4.18;;
76856;SDS011;69705;44.686;37.628;2023-05-14T00:05:14;10.90;;;4.30;;
76856;SDS011;69705;44.686;37.628;2023-05-14T00:07:40;10.20;;;4.73;;
76856;SDS011;69705;44.686;37.628;2023-05-14T00:10:07;9.63;;;4.53;;
76856;SDS011;69705;44.686;37.628;2023-05-14T00:12:34;11.13;;;4.45;;
76856;SDS011;69705;44.686;37.628;2023-05-14T00:15:00;9.70;;;4.22;;
76856;SDS011;69705;44.686;37.628;2023-05-14T00:17:27;9.93;;;4.25;;
76856;SDS011;69705;44.686;37.628;2023-05-14T00:19:55;9.00;;;4.33;;
76856;SDS011;69705;44.686;37.628;2023-05-14T00:22:21;8.52;;;4.50;;
76856;SDS011;69705;44.686;37.628;2023-05-14T00:24:48;13.90;;;4.28;;
76856;SDS011;69705;44.686;37.628;2023-05-14T00:27:14;8.65;;;4.20;;
76856;SDS011;69705;44.686;37.628;2023-05-14T00:29:41;8.18;;;4.68;;
76856;SDS011;69705;44.686;37.628;2023-05-14T00:32:07;8.87;;;4.30;;
76856;SDS011;69705;44.686;37.628;2023-05-14T00:34:34;11.13;;;4.40;;
76856;SDS011;69705;44.686;37.628;2023-05-14T00:37:01;8.38;;;4.22;;
76856;SDS011;69705;44.686;37.628;2023-05-14T00:39:28;8.77;;;4.05;;
76856;SDS011;69705;44.686;37.628;2023-05-14T00:41:54;9.98;;;4.60;;
76856;SDS011;69705;44.686;37.628;2023-05-14T00:44:21;12.03;;;4.40;;
76856;SDS011;69705;44.686;37.628;2023-05-14T00:46:47;9.32;;;3.90;;
76856;SDS011;69705;44.686;37.628;2023-05-14T00:49:14;9.38;;;4.43;;
76856;SDS011;69705;44.686;37.628;2023-05-14T00:51:41;9.23;;;4.20;;
76856;SDS011;69705;44.686;37.628;2023-05-14T00:54:20;9.85;;;4.20;;
76856;SDS011;69705;44.686;37.628;2023-05-14T00:56:47;10.33;;;4.43;;
76856;SDS011;69705;44.686;37.628;2023-05-14T00:59:15;9.68;;;4.38;;
76856;SDS011;69705;44.686;37.628;2023-05-14T01:01:41;10.00;;;4.40;;
76856;SDS011;69705;44.686;37.628;2023-05-14T01:04:08;10.27;;;4.20;;
76856;SDS011;69705;44.686;37.628;2023-05-14T01:09:20;11.97;;;4.27;;
76856;SDS011;69705;44.686;37.628;2023-05-14T01:11:54;9.15;;;4.30;;
76856;SDS011;69705;44.686;37.628;2023-05-14T01:17:10;9.68;;;4.05;;
76856;SDS011;69705;44.686;37.628;2023-05-14T01:19:43;11.13;;;4.57;;
76856;SDS011;69705;44.686;37.628;2023-05-14T01:22:11;10.00;;;4.90;;
76856;SDS011;69705;44.686;37.628;2023-05-14T01:24:38;8.43;;;4.57;;
76856;SDS011;69705;44.686;37.628;2023-05-14T01:29:35;10.95;;;4.50;;
76856;SDS011;69705;44.686;37.628;2023-05-14T01:32:05;9.07;;;4.43;;
76856;SDS011;69705;44.686;37.628;2023-05-14T01:34:34;9.33;;;4.40;;
76856;SDS011;69705;44.686;37.628;2023-05-14T01:37:02;9.55;;;4.13;;
76856;SDS011;69705;44.686;37.628;2023-05-14T01:39:30;10.13;;;4.45;;
76856;SDS011;69705;44.686;37.628;2023-05-14T01:41:57;11.27;;;4.85;;
76856;SDS011;69705;44.686;37.628;2023-05-14T01:44:26;11.18;;;4.60;;
76856;SDS011;69705;44.686;37.628;2023-05-14T01:46:53;9.80;;;4.33;;
76856;SDS011;69705;44.686;37.628;2023-05-14T01:49:19;9.38;;;4.20;;
76856;SDS011;69705;44.686;37.628;2023-05-14T01:51:46;9.30;;;4.57;;
76856;SDS011;69705;44.686;37.628;2023-05-14T01:54:12;10.38;;;4.50;;
76856;SDS011;69705;44.686;37.628;2023-05-14T01:56:39;11.68;;;4.78;;
76856;SDS011;69705;44.686;37.628;2023-05-14T01:59:06;9.33;;;4.70;;
76856;SDS011;69705;44.686;37.628;2023-05-14T02:01:33;10.15;;;4.90;;
76856;SDS011;69705;44.686;37.628;2023-05-14T02:03:59;9.55;;;4.68;;
76856;SDS011;69705;44.686;37.628;2023-05-14T02:06:26;9.85;;;4.75;;
76856;SDS011;69705;44.686;37.628;2023-05-14T02:08:55;12.52;;;4.93;;
76856;SDS011;69705;44.686;37.628;2023-05-14T02:11:21;9.17;;;4.80;;
76856;SDS011;69705;44.686;37.628;2023-05-14T02:13:48;9.63;;;4.55;;
76856;SDS011;69705;44.686;37.628;2023-05-14T02:16:14;11.45;;;5.63;;
76856;SDS011;69705;44.686;37.628;2023-05-14T02:18:40;8.95;;;4.93;;
76856;SDS011;69705;44.686;37.628;2023-05-14T02:21:07;9.02;;;4.60;;
76856;SDS011;69705;44.686;37.628;2023-05-14T02:23:34;9.57;;;4.70;;
76856;SDS011;69705;44.686;37.628;2023-05-14T02:26:01;9.90;;;5.00;;
76856;SDS011;69705;44.686;37.628;2023-05-14T02:28:27;10.40;;;4.88;;
76856;SDS011;69705;44.686;37.628;2023-05-14T02:30:58;9.38;;;4.90;;
76856;SDS011;69705;44.686;37.628;2023-05-14T02:33:26;9.38;;;4.75;;
76856;SDS011;69705;44.686;37.628;2023-05-14T02:35:53;9.17;;;4.60;;
76856;SDS011;69705;44.686;37.628;2023-05-14T02:38:19;9.35;;;5.10;;
76856;SDS011;69705;44.686;37.628;2023-05-14T02:40:46;10.80;;;4.63;;
76856;SDS011;69705;44.686;37.628;2023-05-14T02:43:12;11.38;;;4.63;;
76856;SDS011;69705;44.686;37.628;2023-05-14T02:45:39;10.30;;;4.50;;
76856;SDS011;69705;44.686;37.628;2023-05-14T02:48:05;9.07;;;4.47;;
76856;SDS011;69705;44.686;37.628;2023-05-14T02:50:32;9.07;;;4.68;;
76856;SDS011;69705;44.686;37.628;2023-05-14T02:52:58;11.48;;;4.90;;
76856;SDS011;69705;44.686;37.628;2023-05-14T02:55:26;10.02;;;4.80;;
76856;SDS011;69705;44.686;37.628;2023-05-14T02:57:53;10.02;;;4.57;;
76856;SDS011;69705;44.686;37.628;2023-05-14T03:00:19;10.83;;;4.87;;
76856;SDS011;69705;44.686;37.628;2023-05-14T03:02:47;10.07;;;4.70;;
76856;SDS011;69705;44.686;37.628;2023-05-14T03:05:13;9.90;;;5.22;;
76856;SDS011;69705;44.686;37.628;2023-05-14T03:07:40;9.95;;;4.70;;
76856;SDS011;69705;44.686;37.628;2023-05-14T03:10:06;10.05;;;4.88;;
76856;SDS011;69705;44.686;37.628;2023-05-14T03:12:33;10.80;;;4.90;;
76856;SDS011;69705;44.686;37.628;2023-05-14T03:15:00;12.75;;;4.90;;
76856;SDS011;69705;44.686;37.628;2023-05-14T03:17:26;9.13;;;4.82;;
76856;SDS011;69705;44.686;37.628;2023-05-14T03:19:53;11.68;;;4.97;;
76856;SDS011;69705;44.686;37.628;2023-05-14T03:22:19;11.70;;;5.00;;
76856;SDS011;69705;44.686;37.628;2023-05-14T03:24:46;11.53;;;5.07;;
76856;SDS011;69705;44.686;37.628;2023-05-14T03:27:13;9.38;;;4.80;;
76856;SDS011;69705;44.686;37.628;2023-05-14T03:29:39;9.57;;;4.68;;
76856;SDS011;69705;44.686;37.628;2023-05-14T03:32:06;8.32;;;4.63;;
76856;SDS011;69705;44.686;37.628;2023-05-14T03:34:33;9.73;;;4.63;;
76856;SDS011;69705;44.686;37.628;2023-05-14T03:36:59;10.57;;;4.83;;
76856;SDS011;69705;44.686;37.628;2023-05-14T03:39:26;9.93;;;4.53;;
76856;SDS011;69705;44.686;37.628;2023-05-14T03:41:53;9.10;;;4.90;;
76856;SDS011;69705;44.686;37.628;2023-05-14T03:44:23;10.48;;;4.50;;
76856;SDS011;69705;44.686;37.628;2023-05-14T03:46:50;8.55;;;4.60;;
76856;SDS011;69705;44.686;37.628;2023-05-14T03:49:16;10.67;;;4.70;;
76856;SDS011;69705;44.686;37.628;2023-05-14T03:51:44;9.32;;;4.63;;
76856;SDS011;69705;44.686;37.628;2023-05-14T03:54:10;10.23;;;4.50;;
76856;SDS011;69705;44.686;37.628;2023-05-14T03:56:37;8.85;;;4.60;;
76856;SDS011;69705;44.686;37.628;2023-05-14T03:59:03;9.50;;;4.50;;
76856;SDS011;69705;44.686;37.628;2023-05-14T04:01:31;9.37;;;4.30;;
76856;SDS011;69705;44.686;37.628;2023-05-14T04:03:58;8.35;;;4.28;;
76856;SDS011;69705;44.686;37.628;2023-05-14T04:06:24;10.43;;;4.55;;
76856;SDS011;69705;44.686;37.628;2023-05-14T04:08:51;8.25;;;3.92;;
76856;SDS011;69705;44.686;37.628;2023-05-14T04:11:17;9.63;;;4.13;;
76856;SDS011;69705;44.686;37.628;2023-05-14T04:13:44;10.53;;;4.57;;
76856;SDS011;69705;44.686;37.628;2023-05-14T04:16:11;8.48;;;3.97;;
76856;SDS011;69705;44.686;37.628;2023-05-14T04:18:38;9.75;;;4.38;;
76856;SDS011;69705;44.686;37.628;2023-05-14T04:21:05;9.70;;;4.40;;
76856;SDS011;69705;44.686;37.628;2023-05-14T04:23:31;11.02;;;5.03;;
76856;SDS011;69705;44.686;37.628;2023-05-14T04:25:57;10.20;;;4.38;;
76856;SDS011;69705;44.686;37.628;2023-05-14T04:28:24;11.10;;;4.70;;
76856;SDS011;69705;44.686;37.628;2023-05-14T04:30:51;8.82;;;4.10;;
76856;SDS011;69705;44.686;37.628;2023-05-14T04:33:17;10.52;;;4.22;;
76856;SDS011;69705;44.686;37.628;2023-05-14T04:35:45;10.27;;;4.30;;
76856;SDS011;69705;44.686;37.628;2023-05-14T04:38:11;7.90;;;3.93;;
76856;SDS011;69705;44.686;37.628;2023-05-14T04:40:39;9.57;;;4.07;;
76856;SDS011;69705;44.686;37.628;2023-05-14T04:43:06;8.50;;;4.30;;
76856;SDS011;69705;44.686;37.628;2023-05-14T04:45:33;8.98;;;3.95;;
76856;SDS011;69705;44.686;37.628;2023-05-14T04:47:59;8.65;;;3.85;;
76856;SDS011;69705;44.686;37.628;2023-05-14T04:50:26;7.60;;;3.30;;
76856;SDS011;69705;44.686;37.628;2023-05-14T04:52:52;8.18;;;3.60;;
76856;SDS011;69705;44.686;37.628;2023-05-14T04:55:20;9.27;;;3.30;;
76856;SDS011;69705;44.686;37.628;2023-05-14T04:57:47;9.50;;;3.50;;
76856;SDS011;69705;44.686;37.628;2023-05-14T05:00:15;10.80;;;3.70;;
76856;SDS011;69705;44.686;37.628;2023-05-14T05:02:42;9.27;;;3.50;;
76856;SDS011;69705;44.686;37.628;2023-05-14T05:05:09;7.82;;;3.38;;
76856;SDS011;69705;44.686;37.628;2023-05-14T05:07:36;10.00;;;3.45;;
76856;SDS011;69705;44.686;37.628;2023-05-14T05:10:02;11.48;;;3.40;;
76856;SDS011;69705;44.686;37.628;2023-05-14T05:12:29;10.73;;;3.53;;
76856;SDS011;69705;44.686;37.628;2023-05-14T05:14:56;9.65;;;3.17;;
76856;SDS011;69705;44.686;37.628;2023-05-14T05:17:23;7.82;;;3.08;;
76856;SDS011;69705;44.686;37.628;2023-05-14T05:19:50;8.73;;;3.20;;
76856;SDS011;69705;44.686;37.628;2023-05-14T05:22:18;7.95;;;3.20;;
76856;SDS011;69705;44.686;37.628;2023-05-14T05:24:45;7.43;;;3.00;;
76856;SDS011;69705;44.686;37.628;2023-05-14T05:27:11;7.32;;;3.28;;
76856;SDS011;69705;44.686;37.628;2023-05-14T05:29:38;8.23;;;3.33;;
76856;SDS011;69705;44.686;37.628;2023-05-14T05:32:05;8.63;;;3.47;;
76856;SDS011;69705;44.686;37.628;2023-05-14T05:34:32;6.60;;;3.28;;
76856;SDS011;69705;44.686;37.628;2023-05-14T05:36:59;7.53;;;3.10;;
76856;SDS011;69705;44.686;37.628;2023-05-14T05:39:26;11.07;;;3.25;;
76856;SDS011;69705;44.686;37.628;2023-05-14T05:41:52;8.43;;;3.42;;
76856;SDS011;69705;44.686;37.628;2023-05-14T05:44:19;10.82;;;3.80;;
76856;SDS011;69705;44.686;37.628;2023-05-14T05:46:45;8.75;;;3.50;;
76856;SDS011;69705;44.686;37.628;2023-05-14T05:49:12;7.93;;;3.72;;
76856;SDS011;69705;44.686;37.628;2023-05-14T05:51:38;9.25;;;3.45;;
76856;SDS011;69705;44.686;37.628;2023-05-14T05:54:05;7.88;;;3.38;;
76856;SDS011;69705;44.686;37.628;2023-05-14T05:56:31;9.38;;;3.55;;
76856;SDS011;69705;44.686;37.628;2023-05-14T05:58:58;8.27;;;3.50;;
76856;SDS011;69705;44.686;37.628;2023-05-14T06:01:25;8.93;;;3.38;;
76856;SDS011;69705;44.686;37.628;2023-05-14T06:03:51;8.38;;;3.00;;
76856;SDS011;69705;44.686;37.628;2023-05-14T06:06:18;8.80;;;3.28;;
76856;SDS011;69705;44.686;37.628;2023-05-14T06:08:45;9.95;;;3.30;;
76856;SDS011;69705;44.686;37.628;2023-05-14T06:11:11;8.10;;;3.22;;
76856;SDS011;69705;44.686;37.628;2023-05-14T06:13:38;9.65;;;4.03;;
76856;SDS011;69705;44.686;37.628;2023-05-14T06:16:04;10.32;;;4.00;;
76856;SDS011;69705;44.686;37.628;2023-05-14T06:18:31;9.95;;;3.80;;
76856;SDS011;69705;44.686;37.628;2023-05-14T06:20:57;7.97;;;3.60;;
76856;SDS011;69705;44.686;37.628;2023-05-14T06:23:25;13.30;;;4.10;;
76856;SDS011;69705;44.686;37.628;2023-05-14T06:25:51;9.38;;;3.50;;
76856;SDS011;69705;44.686;37.628;2023-05-14T06:28:18;10.20;;;3.67;;
76856;SDS011;69705;44.686;37.628;2023-05-14T06:30:44;8.05;;;3.40;;
76856;SDS011;69705;44.686;37.628;2023-05-14T06:33:11;9.43;;;3.70;;
76856;SDS011;69705;44.686;37.628;2023-05-14T06:35:38;9.52;;;3.90;;
76856;SDS011;69705;44.686;37.628;2023-05-14T06:38:04;9.20;;;3.45;;
76856;SDS011;69705;44.686;37.628;2023-05-14T06:40:31;8.05;;;4.03;;
76856;SDS011;69705;44.686;37.628;2023-05-14T06:42:57;8.07;;;3.95;;
76856;SDS011;69705;44.686;37.628;2023-05-14T06:45:24;9.60;;;3.70;;
76856;SDS011;69705;44.686;37.628;2023-05-14T06:47:51;8.55;;;3.40;;
76856;SDS011;69705;44.686;37.628;2023-05-14T06:50:17;8.60;;;3.95;;
76856;SDS011;69705;44.686;37.628;2023-05-14T06:52:44;11.10;;;3.67;;
76856;SDS011;69705;44.686;37.628;2023-05-14T06:55:11;9.18;;;4.22;;
76856;SDS011;69705;44.686;37.628;2023-05-14T06:57:37;11.07;;;3.70;;
76856;SDS011;69705;44.686;37.628;2023-05-14T07:00:04;11.63;;;4.22;;
76856;SDS011;69705;44.686;37.628;2023-05-14T07:02:32;7.38;;;3.75;;
76856;SDS011;69705;44.686;37.628;2023-05-14T07:04:58;11.02;;;4.07;;
76856;SDS011;69705;44.686;37.628;2023-05-14T07:07:25;10.48;;;4.13;;
76856;SDS011;69705;44.686;37.628;2023-05-14T07:09:52;9.55;;;3.97;;
76856;SDS011;69705;44.686;37.628;2023-05-14T07:12:23;8.43;;;3.70;;
76856;SDS011;69705;44.686;37.628;2023-05-14T07:14:50;10.45;;;4.05;;
76856;SDS011;69705;44.686;37.628;2023-05-14T07:17:17;8.23;;;3.80;;
76856;SDS011;69705;44.686;37.628;2023-05-14T07:19:48;9.65;;;3.85;;
76856;SDS011;69705;44.686;37.628;2023-05-14T07:22:15;11.35;;;4.20;;
76856;SDS011;69705;44.686;37.628;2023-05-14T07:24:47;11.48;;;3.63;;
76856;SDS011;69705;44.686;37.628;2023-05-14T07:27:14;9.27;;;3.70;;
76856;SDS011;69705;44.686;37.628;2023-05-14T07:29:42;9.38;;;3.72;;
76856;SDS011;69705;44.686;37.628;2023-05-14T07:32:08;11.95;;;3.83;;
76856;SDS011;69705;44.686;37.628;2023-05-14T07:34:35;8.82;;;3.75;;
76856;SDS011;69705;44.686;37.628;2023-05-14T07:37:02;8.68;;;3.58;;
76856;SDS011;69705;44.686;37.628;2023-05-14T07:39:28;6.82;;;3.28;;
76856;SDS011;69705;44.686;37.628;2023-05-14T07:41:55;7.50;;;3.72;;
76856;SDS011;69705;44.686;37.628;2023-05-14T07:44:21;12.95;;;3.60;;
76856;SDS011;69705;44.686;37.628;2023-05-14T07:46:48;9.75;;;3.60;;
76856;SDS011;69705;44.686;37.628;2023-05-14T07:49:14;10.40;;;3.53;;
76856;SDS011;69705;44.686;37.628;2023-05-14T07:51:41;7.55;;;3.60;;
76856;SDS011;69705;44.686;37.628;2023-05-14T07:54:07;10.55;;;3.33;;
76856;SDS011;69705;44.686;37.628;2023-05-14T07:56:34;10.52;;;3.30;;
76856;SDS011;69705;44.686;37.628;2023-05-14T07:59:01;7.15;;;3.30;;
76856;SDS011;69705;44.686;37.628;2023-05-14T08:01:27;9.73;;;3.30;;
76856;SDS011;69705;44.686;37.628;2023-05-14T08:03:54;7.80;;;3.17;;
76856;SDS011;69705;44.686;37.628;2023-05-14T08:06:20;7.20;;;3.03;;
76856;SDS011;69705;44.686;37.628;2023-05-14T08:08:48;10.15;;;3.30;;
76856;SDS011;69705;44.686;37.628;2023-05-14T08:11:15;9.23;;;3.08;;
76856;SDS011;69705;44.686;37.628;2023-05-14T08:13:41;14.30;;;3.38;;
76856;SDS011;69705;44.686;37.628;2023-05-14T08:16:08;9.95;;;3.58;;
76856;SDS011;69705;44.686;37.628;2023-05-14T08:18:34;9.05;;;3.25;;
76856;SDS011;69705;44.686;37.628;2023-05-14T08:21:01;11.93;;;3.38;;
76856;SDS011;69705;44.686;37.628;2023-05-14T08:23:28;9.75;;;3.30;;
76856;SDS011;69705;44.686;37.628;2023-05-14T08:25:54;9.77;;;3.58;;
76856;SDS011;69705;44.686;37.628;2023-05-14T08:28:21;8.65;;;3.17;;
76856;SDS011;69705;44.686;37.628;2023-05-14T08:30:47;8.68;;;2.90;;
76856;SDS011;69705;44.686;37.628;2023-05-14T08:33:14;9.13;;;3.37;;
76856;SDS011;69705;44.686;37.628;2023-05-14T08:35:40;8.10;;;3.15;;
76856;SDS011;69705;44.686;37.628;2023-05-14T08:38:07;9.68;;;3.40;;
76856;SDS011;69705;44.686;37.628;2023-05-14T08:40:33;7.68;;;3.28;;
76856;SDS011;69705;44.686;37.628;2023-05-14T08:43:00;7.03;;;3.10;;
76856;SDS011;69705;44.686;37.628;2023-05-14T08:45:30;11.43;;;3.78;;
76856;SDS011;69705;44.686;37.628;2023-05-14T08:47:59;11.60;;;3.40;;
76856;SDS011;69705;44.686;37.628;2023-05-14T08:50:35;9.18;;;3.47;;
76856;SDS011;69705;44.686;37.628;2023-05-14T08:53:01;10.35;;;2.97;;
76856;SDS011;69705;44.686;37.628;2023-05-14T08:55:28;6.97;;;3.38;;
76856;SDS011;69705;44.686;37.628;2023-05-14T08:57:57;10.18;;;3.38;;
76856;SDS011;69705;44.686;37.628;2023-05-14T09:00:24;12.30;;;3.22;;
76856;SDS011;69705;44.686;37.628;2023-05-14T09:02:51;7.78;;;3.10;;
76856;SDS011;69705;44.686;37.628;2023-05-14T09:05:18;8.20;;;3.17;;
76856;SDS011;69705;44.686;37.628;2023-05-14T09:07:45;12.32;;;3.50;;
76856;SDS011;69705;44.686;37.628;2023-05-14T09:10:12;10.35;;;3.53;;
76856;SDS011;69705;44.686;37.628;2023-05-14T09:12:40;9.98;;;3.40;;
76856;SDS011;69705;44.686;37.628;2023-05-14T09:15:06;10.75;;;3.50;;
76856;SDS011;69705;44.686;37.628;2023-05-14T09:17:38;8.63;;;3.40;;
76856;SDS011;69705;44.686;37.628;2023-05-14T09:20:05;8.65;;;3.63;;
76856;SDS011;69705;44.686;37.628;2023-05-14T09:22:33;9.87;;;3.57;;
76856;SDS011;69705;44.686;37.628;2023-05-14T09:25:03;12.63;;;5.00;;
76856;SDS011;69705;44.686;37.628;2023-05-14T09:27:32;11.20;;;4.13;;
76856;SDS011;69705;44.686;37.628;2023-05-14T09:30:05;16.08;;;4.95;;
76856;SDS011;69705;44.686;37.628;2023-05-14T09:32:36;10.18;;;3.63;;
76856;SDS011;69705;44.686;37.628;2023-05-14T09:35:18;8.40;;;3.23;;
76856;SDS011;69705;44.686;37.628;2023-05-14T09:37:47;10.35;;;3.15;;
76856;SDS011;69705;44.686;37.628;2023-05-14T09:40:17;8.20;;;3.10;;
76856;SDS011;69705;44.686;37.628;2023-05-14T09:42:46;8.18;;;2.90;;
76856;SDS011;69705;44.686;37.628;2023-05-14T09:45:14;6.82;;;2.60;;
76856;SDS011;69705;44.686;37.628;2023-05-14T09:47:41;10.17;;;2.90;;
76856;SDS011;69705;44.686;37.628;2023-05-14T09:50:14;8.73;;;3.20;;
76856;SDS011;69705;44.686;37.628;2023-05-14T09:52:41;9.30;;;3.03;;
76856;SDS011;69705;44.686;37.628;2023-05-14T09:55:08;7.80;;;2.53;;
76856;SDS011;69705;44.686;37.628;2023-05-14T09:57:40;11.48;;;3.47;;
76856;SDS011;69705;44.686;37.628;2023-05-14T10:00:07;9.57;;;2.80;;
76856;SDS011;69705;44.686;37.628;2023-05-14T10:02:35;10.43;;;3.00;;
76856;SDS011;69705;44.686;37.628;2023-05-14T10:05:03;8.85;;;2.90;;
76856;SDS011;69705;44.686;37.628;2023-05-14T10:07:37;9.15;;;2.97;;
76856;SDS011;69705;44.686;37.628;2023-05-14T10:10:14;8.73;;;3.00;;
76856;SDS011;69705;44.686;37.628;2023-05-14T10:12:41;14.37;;;3.53;;
76856;SDS011;69705;44.686;37.628;2023-05-14T10:15:20;8.77;;;2.78;;
76856;SDS011;69705;44.686;37.628;2023-05-14T10:17:54;8.00;;;2.97;;
76856;SDS011;69705;44.686;37.628;2023-05-14T10:20:23;7.22;;;2.88;;
76856;SDS011;69705;44.686;37.628;2023-05-14T10:22:52;10.75;;;2.90;;
76856;SDS011;69705;44.686;37.628;2023-05-14T10:25:19;9.70;;;2.87;;
76856;SDS011;69705;44.686;37.628;2023-05-14T10:27:46;9.02;;;2.70;;
76856;SDS011;69705;44.686;37.628;2023-05-14T10:30:13;7.60;;;3.03;;
76856;SDS011;69705;44.686;37.628;2023-05-14T10:32:40;8.45;;;2.50;;
76856;SDS011;69705;44.686;37.628;2023-05-14T10:35:18;10.18;;;3.15;;
76856;SDS011;69705;44.686;37.628;2023-05-14T10:37:49;8.33;;;2.90;;
76856;SDS011;69705;44.686;37.628;2023-05-14T10:40:16;10.13;;;3.10;;
76856;SDS011;69705;44.686;37.628;2023-05-14T10:42:43;5.90;;;2.60;;
76856;SDS011;69705;44.686;37.628;2023-05-14T10:45:12;6.38;;;2.40;;
76856;SDS011;69705;44.686;37.628;2023-05-14T10:47:44;9.88;;;2.65;;
76856;SDS011;69705;44.686;37.628;2023-05-14T10:50:13;6.20;;;2.40;;
76856;SDS011;69705;44.686;37.628;2023-05-14T10:52:40;9.40;;;3.00;;
76856;SDS011;69705;44.686;37.628;2023-05-14T10:55:11;8.68;;;2.60;;
76856;SDS011;69705;44.686;37.628;2023-05-14T10:57:39;10.50;;;2.90;;
76856;SDS011;69705;44.686;37.628;2023-05-14T11:00:08;8.63;;;2.60;;
76856;SDS011;69705;44.686;37.628;2023-05-14T11:02:38;7.43;;;2.60;;
76856;SDS011;69705;44.686;37.628;2023-05-14T11:07:46;7.93;;;2.45;;
76856;SDS011;69705;44.686;37.628;2023-05-14T11:10:14;6.53;;;2.28;;
76856;SDS011;69705;44.686;37.628;2023-05-14T11:12:43;8.02;;;2.67;;
76856;SDS011;69705;44.686;37.628;2023-05-14T11:15:12;7.13;;;2.67;;
76856;SDS011;69705;44.686;37.628;2023-05-14T11:17:41;8.75;;;2.80;;
76856;SDS011;69705;44.686;37.628;2023-05-14T11:20:09;5.82;;;2.40;;
76856;SDS011;69705;44.686;37.628;2023-05-14T11:22:37;7.45;;;2.63;;
76856;SDS011;69705;44.686;37.628;2023-05-14T11:25:05;7.28;;;2.40;;
76856;SDS011;69705;44.686;37.628;2023-05-14T11:27:34;8.50;;;2.60;;
76856;SDS011;69705;44.686;37.628;2023-05-14T11:30:02;7.07;;;2.63;;
76856;SDS011;69705;44.686;37.628;2023-05-14T11:32:31;9.25;;;2.70;;
76856;SDS011;69705;44.686;37.628;2023-05-14T11:34:58;6.75;;;2.50;;
76856;SDS011;69705;44.686;37.628;2023-05-14T11:37:25;6.90;;;2.60;;
76856;SDS011;69705;44.686;37.628;2023-05-14T11:39:52;6.00;;;2.33;;
76856;SDS011;69705;44.686;37.628;2023-05-14T11:42:20;9.07;;;2.38;;
76856;SDS011;69705;44.686;37.628;2023-05-14T11:44:48;7.57;;;2.50;;
76856;SDS011;69705;44.686;37.628;2023-05-14T11:47:17;8.48;;;2.53;;
76856;SDS011;69705;44.686;37.628;2023-05-14T11:49:44;8.85;;;2.50;;
76856;SDS011;69705;44.686;37.628;2023-05-14T11:52:12;7.50;;;2.40;;
76856;SDS011;69705;44.686;37.628;2023-05-14T11:54:40;7.85;;;2.50;;
76856;SDS011;69705;44.686;37.628;2023-05-14T11:57:26;7.38;;;2.30;;
76856;SDS011;69705;44.686;37.628;2023-05-14T11:59:55;8.98;;;2.55;;
76856;SDS011;69705;44.686;37.628;2023-05-14T12:02:26;8.38;;;2.60;;
76856;SDS011;69705;44.686;37.628;2023-05-14T12:04:54;5.80;;;2.40;;
76856;SDS011;69705;44.686;37.628;2023-05-14T12:07:20;8.27;;;2.58;;
76856;SDS011;69705;44.686;37.628;2023-05-14T12:09:47;10.43;;;2.40;;
76856;SDS011;69705;44.686;37.628;2023-05-14T12:12:16;9.02;;;2.50;;
76856;SDS011;69705;44.686;37.628;2023-05-14T12:14:44;6.88;;;2.42;;
76856;SDS011;69705;44.686;37.628;2023-05-14T12:17:15;6.93;;;2.30;;
76856;SDS011;69705;44.686;37.628;2023-05-14T12:19:43;6.05;;;2.33;;
76856;SDS011;69705;44.686;37.628;2023-05-14T12:22:13;8.65;;;2.70;;
76856;SDS011;69705;44.686;37.628;2023-05-14T12:24:42;10.35;;;2.97;;
76856;SDS011;69705;44.686;37.628;2023-05-14T12:27:09;11.85;;;3.20;;
76856;SDS011;69705;44.686;37.628;2023-05-14T12:29:37;8.63;;;2.70;;
76856;SDS011;69705;44.686;37.628;2023-05-14T12:32:07;10.50;;;2.70;;
76856;SDS011;69705;44.686;37.628;2023-05-14T12:34:35;8.65;;;2.65;;
76856;SDS011;69705;44.686;37.628;2023-05-14T12:37:02;8.43;;;2.88;;
76856;SDS011;69705;44.686;37.628;2023-05-14T12:39:34;9.95;;;2.75;;
76856;SDS011;69705;44.686;37.628;2023-05-14T12:42:01;14.23;;;2.63;;
76856;SDS011;69705;44.686;37.628;2023-05-14T12:44:28;8.52;;;2.70;;
76856;SDS011;69705;44.686;37.628;2023-05-14T12:46:54;7.65;;;2.67;;
76856;SDS011;69705;44.686;37.628;2023-05-14T12:49:21;8.85;;;2.53;;
76856;SDS011;69705;44.686;37.628;2023-05-14T12:51:48;6.72;;;2.03;;
76856;SDS011;69705;44.686;37.628;2023-05-14T12:54:14;7.63;;;2.17;;
76856;SDS011;69705;44.686;37.628;2023-05-14T12:56:41;7.35;;;1.95;;
76856;SDS011;69705;44.686;37.628;2023-05-14T12:59:08;7.82;;;2.13;;
76856;SDS011;69705;44.686;37.628;2023-05-14T13:01:35;7.28;;;2.30;;
76856;SDS011;69705;44.686;37.628;2023-05-14T13:04:04;5.40;;;2.03;;
76856;SDS011;69705;44.686;37.628;2023-05-14T13:06:30;7.07;;;2.17;;
76856;SDS011;69705;44.686;37.628;2023-05-14T13:08:57;7.75;;;2.10;;
76856;SDS011;69705;44.686;37.628;2023-05-14T13:11:26;7.28;;;2.05;;
76856;SDS011;69705;44.686;37.628;2023-05-14T13:13:55;6.90;;;2.30;;
76856;SDS011;69705;44.686;37.628;2023-05-14T13:16:21;7.63;;;2.45;;
76856;SDS011;69705;44.686;37.628;2023-05-14T13:18:48;6.73;;;2.40;;
76856;SDS011;69705;44.686;37.628;2023-05-14T13:21:15;8.63;;;2.50;;
76856;SDS011;69705;44.686;37.628;2023-05-14T13:23:41;7.20;;;2.65;;
76856;SDS011;69705;44.686;37.628;2023-05-14T13:26:07;8.80;;;2.80;;
76856;SDS011;69705;44.686;37.628;2023-05-14T13:28:34;6.95;;;2.63;;
76856;SDS011;69705;44.686;37.628;2023-05-14T13:31:11;6.70;;;2.60;;
76856;SDS011;69705;44.686;37.628;2023-05-14T13:33:39;8.02;;;2.60;;
76856;SDS011;69705;44.686;37.628;2023-05-14T13:36:07;7.13;;;2.53;;
76856;SDS011;69705;44.686;37.628;2023-05-14T13:38:35;8.75;;;3.00;;
76856;SDS011;69705;44.686;37.628;2023-05-14T13:41:01;8.65;;;3.00;;
76856;SDS011;69705;44.686;37.628;2023-05-14T13:43:28;7.93;;;2.83;;
76856;SDS011;69705;44.686;37.628;2023-05-14T13:45:59;8.57;;;2.90;;
76856;SDS011;69705;44.686;37.628;2023-05-14T13:48:26;7.85;;;3.20;;
76856;SDS011;69705;44.686;37.628;2023-05-14T13:50:53;10.05;;;3.03;;
76856;SDS011;69705;44.686;37.628;2023-05-14T13:53:19;7.80;;;2.97;;
76856;SDS011;69705;44.686;37.628;2023-05-14T13:55:48;9.47;;;3.20;;
76856;SDS011;69705;44.686;37.628;2023-05-14T13:58:15;9.65;;;3.30;;
76856;SDS011;69705;44.686;37.628;2023-05-14T14:00:42;8.93;;;3.33;;
76856;SDS011;69705;44.686;37.628;2023-05-14T14:03:09;8.57;;;2.80;;
76856;SDS011;69705;44.686;37.628;2023-05-14T14:05:35;8.70;;;2.60;;
76856;SDS011;69705;44.686;37.628;2023-05-14T14:08:02;11.10;;;2.70;;
76856;SDS011;69705;44.686;37.628;2023-05-14T14:10:29;9.65;;;2.90;;
76856;SDS011;69705;44.686;37.628;2023-05-14T14:12:55;10.38;;;4.93;;
76856;SDS011;69705;44.686;37.628;2023-05-14T14:15:22;8.73;;;3.20;;
76856;SDS011;69705;44.686;37.628;2023-05-14T14:17:49;9.48;;;3.85;;
76856;SDS011;69705;44.686;37.628;2023-05-14T14:20:15;8.70;;;3.97;;
76856;SDS011;69705;44.686;37.628;2023-05-14T14:22:42;10.20;;;3.90;;
76856;SDS011;69705;44.686;37.628;2023-05-14T14:25:10;8.65;;;3.53;;
76856;SDS011;69705;44.686;37.628;2023-05-14T14:27:38;11.02;;;3.50;;
76856;SDS011;69705;44.686;37.628;2023-05-14T14:30:08;10.93;;;4.00;;
76856;SDS011;69705;44.686;37.628;2023-05-14T14:32:41;10.70;;;4.70;;
76856;SDS011;69705;44.686;37.628;2023-05-14T14:35:09;17.02;;;8.13;;
76856;SDS011;69705;44.686;37.628;2023-05-14T14:37:37;10.60;;;5.07;;
76856;SDS011;69705;44.686;37.628;2023-05-14T14:40:04;9.85;;;4.25;;
76856;SDS011;69705;44.686;37.628;2023-05-14T14:42:35;17.73;;;8.05;;